Aérodrome :
LOGIN :

S'inscrire | Disclaimer

   EN    FR    IT 

 










Légende :    VFR   VFR Marginal   IFR   IFR Intensif   IFR Très Intensif
Visi : 
Plafond : 
>= 8 km
>= 3000ft
5 à 8 km
1000 à 3000 ft
1500m à 5 km
500 à 1000 ft
800 à 1500m
200 à 500 ft
< 800m
< 200 ft
Symboles :   Orages  Brouillard  Fortes neiges  Fortes précipitations  Vent > 20 kt
SIGMETs :   Divers  Orages  Givrage  Turbulence  Onde Orograph.  Cendres Volcan.






- Altitude de l'aérodrome : 330 ft
- Code IATA : LVA


LFOV - Laval-Entrammes

DERNIER METAR :
  • 272200Z AUTO 23009KT 9999 FEW018/// SCT170/// ///TCU 08/06 Q1001

METARs EXPIRÉS :
  • 272130Z AUTO 21010KT 180V240 9999 FEW011/// BKN016/// BKN023/// ///CB 08/07 Q1001
  • 272100Z AUTO 20010KT 180V240 9999 FEW009 BKN015 OVC020 08/07 Q1001
  • 272030Z AUTO 21008KT 9999 SCT016 BKN022 BKN035 08/07 Q1002
  • 272000Z AUTO 21010KT 9999 FEW025 SCT036 BKN043 08/07 Q1002
  • 271930Z AUTO 22010KT 190V250 9999 FEW012 SCT022 BKN043 08/07 Q1002

TAF N/A



MET'MAP, la Météo Aéronautique d'un coup d'oeil ! - Copyright ORBIFLY Décembre 2007 - Disclaimer

ORBIFLY MET'MAP TEAM :

Programmation & Développement : Alexandra Zaïnal
Sur une idée originale de : Baudouin d'Aumeries
Assistance à la programmation : Marc-Olivier Méhu
Soutien technique & logistique : Manuel Goepfert

Contact : metmap@orbifly.com




SOURCES & CREDITS :

   NOAA